Reynolds, Missouri
Current Conditions -  °F | °C
As of 9:15 PM on Thursday 18 Dec 2014 (Local Time) from KFAM Reporting Station
Overcast Overcast  
Wind Chill: 29°   Ceiling: 200
Heat Index: 34°   Visibility: 0.5mi
Dew Point: 34°   Wind: 6mph
Humidity: 100%   Direction: 10°N
Pressure: 30.26"   Gusts: NA
Location:  37.4°N, 91.07°W
Report Text: KFAM 190315Z AUTO 01005KT 1/2SM OVC002 01/01 A3026 RMK AO1
Loading
Personal Weather Stations






























Interactive Weather Map New forecast layout! Learn more

10-Day Weather Forecast

Advertisements
Track Severe Weather on mobile